createdAt,value
2019-01-15T00:01:36.535Z,45.40
2019-01-15T00:04:08.144Z,45.80
2019-01-15T00:06:39.222Z,44.20
2019-01-15T00:09:11.037Z,45.80
2019-01-15T00:11:42.912Z,43.40
2019-01-15T00:14:14.489Z,44.60
2019-01-15T00:16:45.878Z,42.80
2019-01-15T00:19:17.143Z,45.60
2019-01-15T00:21:48.800Z,45.60
2019-01-15T00:24:20.965Z,45.20
2019-01-15T00:26:53.437Z,44.20
2019-01-15T00:29:24.593Z,45.00
2019-01-15T00:31:56.042Z,45.40
2019-01-15T00:34:27.474Z,42.00
2019-01-15T00:36:59.035Z,45.40
2019-01-15T00:39:31.083Z,46.00
2019-01-15T00:42:02.372Z,45.40
2019-01-15T00:44:33.778Z,45.00
2019-01-15T00:47:05.137Z,46.00
2019-01-15T00:49:36.436Z,46.40
2019-01-15T00:52:07.828Z,46.00
2019-01-15T00:54:39.911Z,49.00
2019-01-15T00:57:11.404Z,48.60
2019-01-15T00:59:42.660Z,49.00
2019-01-15T01:02:14.197Z,48.80
2019-01-15T01:04:45.447Z,48.40
2019-01-15T01:07:16.866Z,47.60
2019-01-15T01:09:48.390Z,47.20
2019-01-15T01:12:22.279Z,44.20
2019-01-15T01:14:52.562Z,49.00
2019-01-15T01:17:24.041Z,50.20
2019-01-15T01:19:55.480Z,51.60
2019-01-15T01:22:26.829Z,52.00
2019-01-15T01:24:58.233Z,53.00
2019-01-15T01:27:29.525Z,52.00
2019-01-15T01:30:00.878Z,59.20
2019-01-15T01:32:32.097Z,55.20
2019-01-15T01:35:03.559Z,58.60
2019-01-15T01:37:34.908Z,58.40
2019-01-15T01:40:11.321Z,58.40
2019-01-15T01:42:42.682Z,65.20
2019-01-15T01:45:14.678Z,67.80
2019-01-15T01:47:46.057Z,71.00
2019-01-15T01:50:17.716Z,74.80
2019-01-15T01:52:49.582Z,65.40
2019-01-15T01:55:20.831Z,62.40
2019-01-15T01:57:53.442Z,69.20
2019-01-15T02:00:25.103Z,62.20
2019-01-15T02:02:56.254Z,72.40
2019-01-15T02:05:28.050Z,76.40
2019-01-15T02:07:59.667Z,78.80
2019-01-15T02:10:31.453Z,79.20
2019-01-15T02:13:02.574Z,83.75
2019-01-15T02:15:34.159Z,85.50
2019-01-15T02:18:05.489Z,57.60
2019-01-15T02:20:37.434Z,65.00
2019-01-15T02:23:09.140Z,78.40
2019-01-15T02:25:40.816Z,78.60
2019-01-15T02:28:11.704Z,82.80
2019-01-15T02:30:42.953Z,87.20
2019-01-15T02:33:14.202Z,93.75
2019-01-15T02:35:45.639Z,100.20
2019-01-15T02:38:17.443Z,95.25
2019-01-15T02:40:48.800Z,95.25
2019-01-15T02:43:20.143Z,87.20
2019-01-15T02:45:52.037Z,92.60
2019-01-15T02:48:23.770Z,87.00
2019-01-15T02:50:55.176Z,88.80
2019-01-15T02:53:26.750Z,78.80
2019-01-15T02:55:58.477Z,81.00
2019-01-15T02:58:30.675Z,84.40
2019-01-15T03:01:02.002Z,84.20
2019-01-15T03:03:33.442Z,77.20
2019-01-15T03:06:05.526Z,76.00
2019-01-15T03:08:37.035Z,79.60
2019-01-15T03:11:08.781Z,74.80
2019-01-15T03:13:40.372Z,77.60
2019-01-15T03:16:11.793Z,78.20
2019-01-15T03:18:43.470Z,71.40
2019-01-15T03:21:14.866Z,65.00
2019-01-15T03:23:46.166Z,69.60
2019-01-15T03:26:17.963Z,67.40
2019-01-15T03:28:49.700Z,68.20
2019-01-15T03:31:21.013Z,67.00
2019-01-15T03:33:52.505Z,69.40
2019-01-15T03:36:23.794Z,71.60
2019-01-15T03:38:55.079Z,67.60
2019-01-15T03:41:26.199Z,66.40
2019-01-15T03:43:58.054Z,65.80
2019-01-15T03:46:29.648Z,69.00
2019-01-15T03:49:01.054Z,76.00
2019-01-15T03:51:33.476Z,78.20
2019-01-15T03:54:05.242Z,78.40
2019-01-15T03:56:36.954Z,71.40
2019-01-15T03:59:08.309Z,70.60
2019-01-15T04:01:39.711Z,73.40
2019-01-15T04:04:11.139Z,74.00
2019-01-15T04:06:43.175Z,75.80
2019-01-15T04:09:15.856Z,69.80
2019-01-15T04:11:47.137Z,72.80
2019-01-15T04:14:18.506Z,68.80
2019-01-15T04:16:49.802Z,71.40
2019-01-15T04:19:21.031Z,73.80
2019-01-15T04:21:52.377Z,75.40
2019-01-15T04:24:23.583Z,74.80
2019-01-15T04:26:56.263Z,73.60
2019-01-15T04:29:27.822Z,67.20
2019-01-15T04:31:59.215Z,72.00
2019-01-15T04:34:30.616Z,74.40
2019-01-15T04:37:01.958Z,67.80
2019-01-15T04:39:33.982Z,66.40
2019-01-15T04:42:05.675Z,67.40
2019-01-15T04:44:36.802Z,68.40
2019-01-15T04:47:07.948Z,70.00
2019-01-15T04:49:39.433Z,68.20
2019-01-15T04:52:10.945Z,66.00
2019-01-15T04:54:42.481Z,68.60
2019-01-15T04:57:14.136Z,64.60
2019-01-15T04:59:45.831Z,62.60
2019-01-15T05:02:17.221Z,60.00
2019-01-15T05:04:48.725Z,61.20
2019-01-15T05:07:20.276Z,60.20
2019-01-15T05:09:52.034Z,53.20
2019-01-15T05:12:24.184Z,59.00
2019-01-15T05:14:55.771Z,54.00
2019-01-15T05:17:27.314Z,59.80
2019-01-15T05:19:58.788Z,60.80
2019-01-15T05:22:30.158Z,54.40
2019-01-15T05:25:02.212Z,57.00
2019-01-15T05:27:33.494Z,58.00
2019-01-15T05:30:05.586Z,56.20
2019-01-15T05:32:37.513Z,54.00
2019-01-15T05:35:09.445Z,51.00
2019-01-15T05:37:41.119Z,52.60
2019-01-15T05:40:12.918Z,51.40
2019-01-15T05:42:45.083Z,52.00
2019-01-15T05:45:23.526Z,57.40
2019-01-15T05:47:55.624Z,52.60
2019-01-15T05:50:37.609Z,52.00
2019-01-15T05:53:08.943Z,53.80
2019-01-15T05:55:40.582Z,52.20
2019-01-15T05:58:12.255Z,50.60
2019-01-15T06:00:43.633Z,59.20
2019-01-15T06:03:15.483Z,62.40
2019-01-15T06:05:47.321Z,57.20
2019-01-15T06:08:18.782Z,58.40
2019-01-15T06:10:50.458Z,59.40
2019-01-15T06:13:21.935Z,54.80
2019-01-15T06:15:53.533Z,58.00
2019-01-15T06:18:24.990Z,63.20
2019-01-15T06:20:56.697Z,58.60
2019-01-15T06:23:28.274Z,62.60
2019-01-15T06:25:59.463Z,65.40
2019-01-15T06:28:31.252Z,68.20
2019-01-15T06:31:02.562Z,64.00
2019-01-15T06:33:34.330Z,59.80
2019-01-15T06:36:05.681Z,66.20
2019-01-15T06:38:37.181Z,68.20
2019-01-15T06:41:08.812Z,67.40
2019-01-15T06:43:41.836Z,65.60
2019-01-15T06:46:13.396Z,58.80
2019-01-15T06:48:44.949Z,71.80
2019-01-15T06:51:16.623Z,63.00
2019-01-15T06:53:47.931Z,64.40
2019-01-15T06:56:19.291Z,65.20
2019-01-15T06:58:53.713Z,57.80
2019-01-15T07:01:25.817Z,51.80
2019-01-15T07:03:57.554Z,56.40
2019-01-15T07:06:29.206Z,56.60
2019-01-15T07:09:00.810Z,54.00
2019-01-15T07:11:34.026Z,58.20
2019-01-15T07:14:05.946Z,52.80
2019-01-15T07:16:38.559Z,50.40
2019-01-15T07:19:10.004Z,55.40
2019-01-15T07:21:41.257Z,47.80
2019-01-15T07:24:13.417Z,58.40
2019-01-15T07:26:44.720Z,62.00
2019-01-15T07:29:16.119Z,58.20
2019-01-15T07:31:47.664Z,64.00
2019-01-15T07:34:19.532Z,59.00
2019-01-15T07:36:50.741Z,58.00
2019-01-15T07:39:23.216Z,58.20
2019-01-15T07:41:54.886Z,55.20
2019-01-15T07:44:26.261Z,59.00
2019-01-15T07:46:58.101Z,58.00
2019-01-15T07:49:29.623Z,58.20
2019-01-15T07:52:01.037Z,49.80
2019-01-15T07:54:32.516Z,49.20
2019-01-15T07:57:03.892Z,49.20
2019-01-15T07:59:35.544Z,56.60
2019-01-15T08:02:08.225Z,55.40
2019-01-15T08:04:39.905Z,49.60
2019-01-15T08:07:11.338Z,48.80
2019-01-15T08:09:42.897Z,49.20
2019-01-15T08:12:14.704Z,49.40
2019-01-15T08:14:46.224Z,51.20
2019-01-15T08:17:17.651Z,48.00
2019-01-15T08:19:48.752Z,46.20
2019-01-15T08:22:20.778Z,49.40
2019-01-15T08:24:52.536Z,46.60
2019-01-15T08:27:24.392Z,47.20
2019-01-15T08:29:55.599Z,48.40
2019-01-15T08:32:27.995Z,46.80
2019-01-15T08:34:59.336Z,48.40
2019-01-15T08:37:30.956Z,46.80
2019-01-15T08:40:02.441Z,47.00
2019-01-15T08:42:33.770Z,46.60
2019-01-15T08:45:06.225Z,46.80
2019-01-15T08:47:41.092Z,46.00
2019-01-15T08:50:13.018Z,46.40
2019-01-15T08:52:44.841Z,43.80
2019-01-15T08:55:16.203Z,45.00
2019-01-15T08:57:47.937Z,40.40
2019-01-15T09:00:19.534Z,38.20
2019-01-15T09:02:52.038Z,42.20
2019-01-15T09:05:23.659Z,43.00
2019-01-15T09:07:55.797Z,43.60
2019-01-15T09:10:27.245Z,43.60
2019-01-15T09:12:58.578Z,43.00
2019-01-15T09:15:30.538Z,43.00
2019-01-15T09:18:02.420Z,43.40
2019-01-15T09:20:33.932Z,44.20
2019-01-15T09:23:05.573Z,44.80
2019-01-15T09:25:37.977Z,43.00
2019-01-15T09:28:13.076Z,43.00
2019-01-15T09:30:46.696Z,43.00
2019-01-15T09:33:20.313Z,42.00
2019-01-15T09:35:53.537Z,44.20
2019-01-15T09:38:26.025Z,43.00
2019-01-15T09:41:00.091Z,43.00
2019-01-15T09:43:32.560Z,41.20
2019-01-15T09:46:04.291Z,44.00
2019-01-15T09:48:38.045Z,43.40
2019-01-15T09:51:09.807Z,44.20
2019-01-15T09:53:43.219Z,42.40
2019-01-15T09:56:15.171Z,42.20
2019-01-15T09:58:48.123Z,45.00
2019-01-15T10:01:20.497Z,42.60
2019-01-15T10:03:52.388Z,42.20
2019-01-15T10:06:27.216Z,43.00
2019-01-15T10:08:58.867Z,42.60
2019-01-15T10:11:30.616Z,43.40
2019-01-15T10:14:02.457Z,42.20
2019-01-15T10:16:33.930Z,42.20
2019-01-15T10:19:05.587Z,41.20
2019-01-15T10:21:37.210Z,42.20
2019-01-15T10:24:09.157Z,44.00
2019-01-15T10:26:40.606Z,42.20
2019-01-15T10:29:13.139Z,42.20
2019-01-15T10:32:26.857Z,42.20
2019-01-15T10:34:59.584Z,42.20
2019-01-15T10:37:31.191Z,42.20
2019-01-15T10:40:02.768Z,44.40
2019-01-15T10:42:34.533Z,41.40
2019-01-15T10:45:07.006Z,42.40
2019-01-15T10:47:39.357Z,42.20
2019-01-15T10:50:11.358Z,40.20
2019-01-15T10:52:43.197Z,42.20
2019-01-15T10:55:14.816Z,39.20
2019-01-15T10:57:46.402Z,41.40
2019-01-15T11:00:17.977Z,40.20
2019-01-15T11:02:49.411Z,40.00
2019-01-15T11:05:20.771Z,40.40
2019-01-15T11:07:52.338Z,42.20
2019-01-15T11:10:23.847Z,39.80
2019-01-15T11:12:55.184Z,40.00
2019-01-15T11:15:26.897Z,41.80
2019-01-15T11:17:58.960Z,39.60
2019-01-15T11:20:30.838Z,40.00
2019-01-15T11:23:02.301Z,44.80
2019-01-15T11:25:33.849Z,42.20
2019-01-15T11:28:06.957Z,45.20
2019-01-15T11:30:38.667Z,45.20
2019-01-15T11:33:10.532Z,45.20
2019-01-15T11:35:41.913Z,42.20
2019-01-15T11:38:13.551Z,47.60
2019-01-15T11:40:44.775Z,46.60
2019-01-15T11:43:17.857Z,46.60
2019-01-15T11:45:49.240Z,46.40
2019-01-15T11:48:21.611Z,47.80
2019-01-15T11:50:52.795Z,48.00
2019-01-15T11:53:24.268Z,48.00
2019-01-15T11:55:55.472Z,47.60
2019-01-15T11:58:27.039Z,50.60
2019-01-15T12:01:16.246Z,49.80
2019-01-15T12:04:16.253Z,45.80
2019-01-15T12:07:05.617Z,47.80
2019-01-15T12:09:54.890Z,47.40
2019-01-15T12:12:43.656Z,50.00
2019-01-15T12:15:28.010Z,47.20
2019-01-15T12:18:16.952Z,54.00
2019-01-15T12:21:19.134Z,52.40
2019-01-15T12:24:09.450Z,54.60
2019-01-15T12:27:04.561Z,52.60
2019-01-15T12:29:53.576Z,59.00
2019-01-15T12:32:44.589Z,68.00
2019-01-15T12:35:32.156Z,65.40
2019-01-15T12:38:25.586Z,76.80
2019-01-15T12:41:12.536Z,72.40
2019-01-15T12:44:21.624Z,78.60
2019-01-15T12:47:12.420Z,79.60
2019-01-15T12:50:01.699Z,83.00
2019-01-15T12:52:51.680Z,79.00
2019-01-15T12:55:40.841Z,84.60
2019-01-15T12:58:35.847Z,93.40
2019-01-15T13:01:29.311Z,95.80
2019-01-15T13:04:18.264Z,94.40
2019-01-15T13:07:19.853Z,99.40
2019-01-15T13:10:01.620Z,98.75
2019-01-15T13:13:02.043Z,110.25
2019-01-15T13:15:51.681Z,111.00
2019-01-15T13:18:44.717Z,122.75
2019-01-15T13:21:35.265Z,130.75
2019-01-15T13:24:40.822Z,127.50
2019-01-15T13:27:29.977Z,122.25
2019-01-15T13:30:25.956Z,128.00
2019-01-15T13:33:16.603Z,138.00
2019-01-15T13:36:04.958Z,129.25
2019-01-15T13:38:50.635Z,135.75
2019-01-15T13:41:49.663Z,122.75
2019-01-15T13:44:49.242Z,135.50
2019-01-15T13:47:39.739Z,139.75
2019-01-15T13:50:24.495Z,135.50
2019-01-15T13:53:30.351Z,143.75
2019-01-15T13:56:20.860Z,153.25
2019-01-15T13:59:23.092Z,155.75
2019-01-15T14:02:05.408Z,163.50
2019-01-15T14:05:10.643Z,173.25
2019-01-15T14:08:19.817Z,166.75
2019-01-15T14:11:25.319Z,192.00
2019-01-15T14:14:15.946Z,212.80
2019-01-15T14:17:03.160Z,226.40
2019-01-15T14:19:56.738Z,222.80
2019-01-15T14:22:49.891Z,211.80
2019-01-15T14:25:55.267Z,216.80
2019-01-15T14:28:52.086Z,204.25
2019-01-15T14:31:40.736Z,209.00
2019-01-15T14:34:30.220Z,198.00
2019-01-15T14:37:27.870Z,208.50
2019-01-15T14:40:30.775Z,202.75
2019-01-15T14:43:24.455Z,201.75
2019-01-15T14:46:20.604Z,206.50
2019-01-15T14:49:02.391Z,194.25
2019-01-15T14:52:10.801Z,192.50
2019-01-15T14:55:07.585Z,196.75
2019-01-15T14:57:56.685Z,224.60
2019-01-15T15:00:49.936Z,200.75
2019-01-15T15:03:32.786Z,205.25
2019-01-15T15:06:17.300Z,202.50
2019-01-15T15:09:06.580Z,183.75
2019-01-15T15:12:00.658Z,197.50
2019-01-15T15:14:45.141Z,190.50
2019-01-15T15:17:38.274Z,206.00
2019-01-15T15:20:32.112Z,190.25
2019-01-15T15:23:22.448Z,206.50
2019-01-15T15:26:24.204Z,196.00
2019-01-15T15:29:17.477Z,188.75
2019-01-15T15:32:06.024Z,204.25
2019-01-15T15:34:59.097Z,201.25
2019-01-15T15:37:50.184Z,212.50
2019-01-15T15:40:41.258Z,209.25
2019-01-15T15:43:34.743Z,223.00
2019-01-15T15:46:19.572Z,224.80
2019-01-15T15:49:13.199Z,223.60
2019-01-15T15:52:09.519Z,229.00
2019-01-15T15:55:14.868Z,228.80
2019-01-15T15:58:12.172Z,248.75
2019-01-15T16:01:01.025Z,236.25
2019-01-15T16:03:44.709Z,232.50
2019-01-15T16:06:49.379Z,235.40
2019-01-15T16:09:41.363Z,263.60
2019-01-15T16:12:31.886Z,263.20
2019-01-15T16:15:26.456Z,257.20
2019-01-15T16:18:15.748Z,253.60
2019-01-15T16:21:14.651Z,263.00
2019-01-15T16:24:19.714Z,276.20
2019-01-15T16:27:19.581Z,269.20
2019-01-15T16:30:11.707Z,259.60
2019-01-15T16:33:05.289Z,251.80
2019-01-15T16:36:07.475Z,266.00
2019-01-15T16:39:01.012Z,257.60
2019-01-15T16:41:51.809Z,259.60
2019-01-15T16:45:00.432Z,271.00
2019-01-15T16:47:57.680Z,268.80
2019-01-15T16:50:53.696Z,270.20
2019-01-15T16:53:41.251Z,276.00
2019-01-15T16:56:30.396Z,270.20
2019-01-15T16:59:20.839Z,262.40
2019-01-15T17:02:09.764Z,259.80
2019-01-15T17:05:15.605Z,248.00
2019-01-15T17:08:04.747Z,268.80
2019-01-15T17:10:55.284Z,260.80
2019-01-15T17:13:52.348Z,259.80
2019-01-15T17:16:51.957Z,263.40
2019-01-15T17:19:52.567Z,252.00
2019-01-15T17:22:42.994Z,258.40
2019-01-15T17:25:34.596Z,258.60
2019-01-15T17:28:23.765Z,258.60
2019-01-15T17:31:09.499Z,258.20
2019-01-15T17:33:58.810Z,257.60
2019-01-15T17:36:54.510Z,250.00
2019-01-15T17:39:43.691Z,266.20
2019-01-15T17:42:33.061Z,263.00
2019-01-15T17:45:32.877Z,260.40
2019-01-15T17:48:23.369Z,265.60
2019-01-15T17:51:26.185Z,247.60
2019-01-15T17:54:20.143Z,259.20
2019-01-15T17:57:26.702Z,261.80
2019-01-15T18:00:15.351Z,247.80
2019-01-15T18:03:06.612Z,265.80
2019-01-15T18:06:00.994Z,254.20
2019-01-15T18:08:53.596Z,246.60
2019-01-15T18:11:52.899Z,249.20
2019-01-15T18:14:52.738Z,254.80
2019-01-15T18:17:40.678Z,247.20
2019-01-15T18:20:41.087Z,254.00
2019-01-15T18:23:40.003Z,239.40
2019-01-15T18:26:28.623Z,255.00
2019-01-15T18:29:22.191Z,246.20
2019-01-15T18:32:06.858Z,254.60
2019-01-15T18:34:58.401Z,248.20
2019-01-15T18:37:36.895Z,261.20
2019-01-15T18:40:42.986Z,253.80
2019-01-15T18:43:32.423Z,245.60
2019-01-15T18:46:16.235Z,253.40
2019-01-15T18:49:12.716Z,249.60
2019-01-15T18:52:03.510Z,248.80
2019-01-15T18:54:57.484Z,245.80
2019-01-15T18:57:53.822Z,246.80
2019-01-15T19:00:53.138Z,244.20
2019-01-15T19:03:52.630Z,249.20
2019-01-15T19:06:41.089Z,243.50
2019-01-15T19:09:32.116Z,237.80
2019-01-15T19:12:25.346Z,224.80
2019-01-15T19:15:22.194Z,231.20
2019-01-15T19:18:11.043Z,235.00
2019-01-15T19:21:02.166Z,226.20
2019-01-15T19:23:50.911Z,224.60
2019-01-15T19:26:40.280Z,238.80
2019-01-15T19:29:39.489Z,232.20
2019-01-15T19:32:30.332Z,223.40
2019-01-15T19:35:23.483Z,234.00
2019-01-15T19:38:14.028Z,234.40
2019-01-15T19:41:16.535Z,235.80
2019-01-15T19:44:13.370Z,213.40
2019-01-15T19:47:10.466Z,222.20
2019-01-15T19:49:54.886Z,226.40
2019-01-15T19:52:43.234Z,214.40
2019-01-15T19:55:32.288Z,226.20
2019-01-15T19:58:32.300Z,235.00
2019-01-15T20:01:22.764Z,215.40
2019-01-15T20:04:19.017Z,213.40
2019-01-15T20:07:18.631Z,222.80
2019-01-15T20:10:09.030Z,232.80
2019-01-15T20:13:11.708Z,217.00
2019-01-15T20:16:01.287Z,216.00
2019-01-15T20:18:54.459Z,222.00
2019-01-15T20:21:43.805Z,236.40
2019-01-15T20:24:34.776Z,211.40
2019-01-15T20:27:28.494Z,211.60
2019-01-15T20:30:24.937Z,204.75
2019-01-15T20:33:17.980Z,201.75
2019-01-15T20:36:06.843Z,207.75
2019-01-15T20:38:52.719Z,213.25
2019-01-15T20:41:54.591Z,217.25
2019-01-15T20:44:51.019Z,211.75
2019-01-15T20:47:44.493Z,206.50
2019-01-15T20:50:33.544Z,205.75
2019-01-15T20:53:15.168Z,205.50
2019-01-15T20:55:59.896Z,202.00
2019-01-15T20:58:49.068Z,209.00
2019-01-15T21:01:33.251Z,176.00
2019-01-15T21:04:29.640Z,184.25
2019-01-15T21:07:18.511Z,205.00
2019-01-15T21:10:01.116Z,194.25
2019-01-15T21:12:50.492Z,191.25
2019-01-15T21:15:40.886Z,198.50
2019-01-15T21:18:34.345Z,183.50
2019-01-15T21:21:23.120Z,184.25
2019-01-15T21:24:28.537Z,194.75
2019-01-15T21:27:22.758Z,173.50
2019-01-15T21:30:13.842Z,182.25
2019-01-15T21:33:07.233Z,173.50
2019-01-15T21:35:56.069Z,176.25
2019-01-15T21:38:55.269Z,176.75
2019-01-15T21:41:36.532Z,177.00
2019-01-15T21:44:25.328Z,179.50
2019-01-15T21:47:25.527Z,170.75
2019-01-15T21:50:24.414Z,180.25
2019-01-15T21:53:33.029Z,177.00
2019-01-15T21:56:36.127Z,181.50
2019-01-15T21:59:32.250Z,179.00
2019-01-15T22:02:19.818Z,175.75
2019-01-15T22:05:16.323Z,159.75
2019-01-15T22:08:09.906Z,174.25
2019-01-15T22:11:06.034Z,178.25
2019-01-15T22:14:02.555Z,171.00
2019-01-15T22:17:02.068Z,175.50
2019-01-15T22:19:58.061Z,174.00
2019-01-15T22:22:48.888Z,175.50
2019-01-15T22:25:38.152Z,174.75
2019-01-15T22:28:27.657Z,173.25
2019-01-15T22:31:17.204Z,165.50
2019-01-15T22:34:00.459Z,167.75
2019-01-15T22:37:06.096Z,161.50
2019-01-15T22:39:59.241Z,171.75
2019-01-15T22:42:52.705Z,167.25
2019-01-15T22:45:44.432Z,162.75
2019-01-15T22:48:37.814Z,166.75
2019-01-15T22:51:43.848Z,158.25
2019-01-15T22:54:44.199Z,152.00
2019-01-15T22:57:27.880Z,164.50
2019-01-15T23:00:21.245Z,155.75
2019-01-15T23:03:11.058Z,151.00
2019-01-15T23:06:01.763Z,158.00
2019-01-15T23:08:52.185Z,160.00
2019-01-15T23:11:37.596Z,155.00
2019-01-15T23:14:26.191Z,151.25
2019-01-15T23:17:19.754Z,156.50
2019-01-15T23:20:10.039Z,150.25
2019-01-15T23:22:56.447Z,152.25
2019-01-15T23:25:44.985Z,150.50
2019-01-15T23:28:30.466Z,145.00
2019-01-15T23:31:15.449Z,154.00
2019-01-15T23:34:14.640Z,138.25
2019-01-15T23:37:05.955Z,146.25
2019-01-15T23:40:11.607Z,150.50
2019-01-15T23:42:53.617Z,153.75
2019-01-15T23:45:55.465Z,164.25
2019-01-15T23:48:40.890Z,148.75
2019-01-15T23:51:34.205Z,162.00
2019-01-15T23:54:36.368Z,156.00
2019-01-15T23:57:36.793Z,148.50
